NKS460 KDTW-KLGA
Flight info
| Callsign | NKS460 |
|---|---|
| Flight time | 1h 13m |
| Altitude | 39000 |
| Route | PAVYL3 ESSBE SPYDY Q186 WEVEL ETG MIP4 |
| Aircraft | A320/M-SDE3FGHIRWY/LB1 |
Departure
| Time | 2026-05-04 19:19 |
|---|---|
| Airport | Detroit Metropolitan Wayne County Airport (KDTW) |
Arrival
| Time | 2026-05-04 20:32 |
|---|---|
| Airport | LaGuardia Airport (KLGA) |
| Time | Latitude | Longitude | Altitude | Speed | Heading |
|---|---|---|---|---|---|
| 2026-05-04 17:58 | 42.22311 | -83.35145 | 652 ft | 0 kts | 169° |
| 2026-05-04 18:59 | 42.22322 | -83.35148 | 674 ft | 2 kts | 169° |
| 2026-05-04 18:59 | 42.22338 | -83.35152 | 648 ft | 2 kts | 169° |
| 2026-05-04 18:59 | 42.22355 | -83.35157 | 651 ft | 2 kts | 169° |
| 2026-05-04 19:00 | 42.22371 | -83.35161 | 649 ft | 2 kts | 191° |
| 2026-05-04 19:00 | 42.22386 | -83.35161 | 650 ft | 2 kts | 157° |
| 2026-05-04 19:00 | 42.22402 | -83.35170 | 650 ft | 2 kts | 157° |
| 2026-05-04 19:00 | 42.22417 | -83.35176 | 651 ft | 2 kts | 205° |
| 2026-05-04 19:01 | 42.22418 | -83.35176 | 651 ft | 0 kts | 208° |
| 2026-05-04 19:03 | 42.22411 | -83.35185 | 650 ft | 3 kts | 222° |
| 2026-05-04 19:04 | 42.22377 | -83.35241 | 650 ft | 10 kts | 231° |
| 2026-05-04 19:04 | 42.22370 | -83.35254 | 650 ft | 0 kts | 231° |
| 2026-05-04 19:05 | 42.22369 | -83.35254 | 650 ft | 1 kts | 231° |
| 2026-05-04 19:05 | 42.22363 | -83.35264 | 651 ft | 1 kts | 230° |
| 2026-05-04 19:06 | 42.22362 | -83.35266 | 651 ft | 0 kts | 230° |
| 2026-05-04 19:06 | 42.22360 | -83.35270 | 650 ft | 1 kts | 230° |
| 2026-05-04 19:06 | 42.22358 | -83.35273 | 650 ft | 0 kts | 229° |
| 2026-05-04 19:07 | 42.22357 | -83.35274 | 650 ft | 0 kts | 228° |
| 2026-05-04 19:07 | 42.22353 | -83.35280 | 652 ft | 2 kts | 225° |
| 2026-05-04 19:08 | 42.22328 | -83.35307 | 650 ft | 7 kts | 218° |
| 2026-05-04 19:08 | 42.22279 | -83.35347 | 651 ft | 10 kts | 198° |
| 2026-05-04 19:08 | 42.22206 | -83.35316 | 649 ft | 11 kts | 150° |
| 2026-05-04 19:08 | 42.22145 | -83.35267 | 649 ft | 8 kts | 148° |
| 2026-05-04 19:09 | 42.22090 | -83.35225 | 649 ft | 10 kts | 161° |
| 2026-05-04 19:09 | 42.22020 | -83.35255 | 649 ft | 12 kts | 207° |
| 2026-05-04 19:09 | 42.21952 | -83.35304 | 649 ft | 11 kts | 209° |
| 2026-05-04 19:09 | 42.21888 | -83.35334 | 649 ft | 10 kts | 182° |
| 2026-05-04 19:10 | 42.21829 | -83.35299 | 649 ft | 7 kts | 121° |
| 2026-05-04 19:10 | 42.21826 | -83.35222 | 649 ft | 9 kts | 89° |
| 2026-05-04 19:10 | 42.21827 | -83.35126 | 649 ft | 11 kts | 89° |
| 2026-05-04 19:10 | 42.21829 | -83.35017 | 650 ft | 13 kts | 88° |
| 2026-05-04 19:11 | 42.21831 | -83.34925 | 650 ft | 8 kts | 88° |
| 2026-05-04 19:11 | 42.21833 | -83.34835 | 650 ft | 11 kts | 89° |
| 2026-05-04 19:11 | 42.21834 | -83.34721 | 650 ft | 13 kts | 89° |
| 2026-05-04 19:11 | 42.21836 | -83.34591 | 650 ft | 15 kts | 88° |
| 2026-05-04 19:12 | 42.21889 | -83.34475 | 650 ft | 17 kts | 28° |
| 2026-05-04 19:12 | 42.22106 | -83.34318 | 649 ft | 19 kts | 28° |
| 2026-05-04 19:12 | 42.22209 | -83.34241 | 650 ft | 15 kts | 30° |
| 2026-05-04 19:13 | 42.22299 | -83.34174 | 650 ft | 14 kts | 28° |
| 2026-05-04 19:13 | 42.22391 | -83.34107 | 650 ft | 16 kts | 28° |
| 2026-05-04 19:13 | 42.22497 | -83.34028 | 651 ft | 18 kts | 28° |
| 2026-05-04 19:13 | 42.22613 | -83.33943 | 651 ft | 15 kts | 28° |
| 2026-05-04 19:14 | 42.22712 | -83.33871 | 650 ft | 17 kts | 29° |
| 2026-05-04 19:14 | 42.22811 | -83.33797 | 650 ft | 15 kts | 28° |
| 2026-05-04 19:14 | 42.22837 | -83.33774 | 649 ft | 0 kts | 41° |
| 2026-05-04 19:15 | 42.22844 | -83.33765 | 649 ft | 3 kts | 46° |
| 2026-05-04 19:16 | 42.22851 | -83.33738 | 649 ft | 0 kts | 80° |
| 2026-05-04 19:17 | 42.22848 | -83.33710 | 649 ft | 7 kts | 105° |
| 2026-05-04 19:17 | 42.22791 | -83.33661 | 650 ft | 12 kts | 180° |
| 2026-05-04 19:17 | 42.22746 | -83.33680 | 651 ft | 0 kts | 207° |
| 2026-05-04 19:18 | 42.22674 | -83.33733 | 653 ft | 42 kts | 208° |
| 2026-05-04 19:18 | 42.22231 | -83.34058 | 652 ft | 101 kts | 208° |
| 2026-05-04 19:18 | 42.21470 | -83.34612 | 723 ft | 141 kts | 209° |
| 2026-05-04 19:19 | 42.20597 | -83.35283 | 1310 ft | 144 kts | 208° |
| 2026-05-04 19:19 | 42.20016 | -83.35704 | 1793 ft | 142 kts | 208° |
| 2026-05-04 19:19 | 42.19112 | -83.36276 | 2438 ft | 148 kts | 201° |
| 2026-05-04 19:19 | 42.18000 | -83.36259 | 2807 ft | 175 kts | 173° |
| 2026-05-04 19:20 | 42.16716 | -83.36066 | 3189 ft | 196 kts | 182° |
| 2026-05-04 19:20 | 42.15265 | -83.35999 | 3636 ft | 220 kts | 183° |
| 2026-05-04 19:20 | 42.13673 | -83.35952 | 4110 ft | 242 kts | 183° |
| 2026-05-04 19:20 | 42.11939 | -83.35891 | 4916 ft | 252 kts | 184° |
| 2026-05-04 19:21 | 42.10168 | -83.35812 | 5822 ft | 258 kts | 184° |
| 2026-05-04 19:21 | 42.08339 | -83.35724 | 6468 ft | 266 kts | 184° |
| 2026-05-04 19:21 | 42.06478 | -83.35575 | 6657 ft | 271 kts | 176° |
| 2026-05-04 19:21 | 42.04716 | -83.34569 | 6706 ft | 285 kts | 149° |
| 2026-05-04 19:22 | 42.03423 | -83.32491 | 6698 ft | 298 kts | 120° |
| 2026-05-04 19:22 | 42.02866 | -83.29775 | 6709 ft | 305 kts | 103° |
| 2026-05-04 19:22 | 42.02485 | -83.26962 | 6705 ft | 305 kts | 104° |
| 2026-05-04 19:22 | 42.02093 | -83.24197 | 6703 ft | 305 kts | 104° |
| 2026-05-04 19:23 | 42.01686 | -83.21391 | 6706 ft | 305 kts | 104° |
| 2026-05-04 19:23 | 42.01456 | -83.18540 | 6703 ft | 308 kts | 91° |
| 2026-05-04 19:23 | 42.01741 | -83.15640 | 7096 ft | 315 kts | 79° |
| 2026-05-04 19:23 | 42.02168 | -83.12748 | 8062 ft | 317 kts | 80° |
| 2026-05-04 19:24 | 42.02600 | -83.09810 | 8525 ft | 321 kts | 75° |
| 2026-05-04 19:24 | 42.03284 | -83.06975 | 9186 ft | 322 kts | 71° |
| 2026-05-04 19:24 | 42.04007 | -83.04100 | 10019 ft | 328 kts | 71° |
| 2026-05-04 19:24 | 42.04762 | -83.01079 | 10357 ft | 351 kts | 71° |
| 2026-05-04 19:25 | 42.05566 | -82.97857 | 10591 ft | 374 kts | 71° |
| 2026-05-04 19:25 | 42.06422 | -82.94443 | 10989 ft | 389 kts | 71° |
| 2026-05-04 19:25 | 42.07299 | -82.90964 | 11644 ft | 394 kts | 71° |
| 2026-05-04 19:25 | 42.08182 | -82.87455 | 12349 ft | 398 kts | 71° |
| 2026-05-04 19:26 | 42.09070 | -82.83926 | 13031 ft | 403 kts | 71° |
| 2026-05-04 19:26 | 42.09973 | -82.80333 | 13718 ft | 407 kts | 71° |
| 2026-05-04 19:26 | 42.10887 | -82.76698 | 14362 ft | 410 kts | 71° |
| 2026-05-04 19:26 | 42.11805 | -82.73034 | 14995 ft | 413 kts | 71° |
| 2026-05-04 19:27 | 42.12726 | -82.69345 | 15618 ft | 416 kts | 71° |
| 2026-05-04 19:27 | 42.13629 | -82.65681 | 16205 ft | 419 kts | 72° |
| 2026-05-04 19:27 | 42.14242 | -82.61823 | 16810 ft | 422 kts | 83° |
| 2026-05-04 19:27 | 42.14377 | -82.57849 | 17418 ft | 425 kts | 92° |
| 2026-05-04 19:28 | 42.14334 | -82.53820 | 18030 ft | 429 kts | 91° |
| 2026-05-04 19:28 | 42.14305 | -82.49789 | 18566 ft | 432 kts | 91° |
| 2026-05-04 19:28 | 42.14263 | -82.45716 | 19108 ft | 436 kts | 94° |
| 2026-05-04 19:28 | 42.13889 | -82.41653 | 19642 ft | 438 kts | 100° |
| 2026-05-04 19:29 | 42.13390 | -82.37615 | 20191 ft | 442 kts | 100° |
| 2026-05-04 19:29 | 42.12874 | -82.33513 | 20692 ft | 446 kts | 100° |
| 2026-05-04 19:29 | 42.12353 | -82.29403 | 21455 ft | 439 kts | 100° |
| 2026-05-04 19:29 | 42.11852 | -82.25434 | 22772 ft | 421 kts | 100° |
| 2026-05-04 19:30 | 42.11359 | -82.21524 | 23365 ft | 424 kts | 100° |
| 2026-05-04 19:30 | 42.10860 | -82.17590 | 23795 ft | 427 kts | 100° |
| 2026-05-04 19:30 | 42.10356 | -82.13633 | 24248 ft | 429 kts | 100° |
| 2026-05-04 19:30 | 42.09856 | -82.09703 | 24697 ft | 432 kts | 99° |
| 2026-05-04 19:31 | 42.09345 | -82.05685 | 25163 ft | 434 kts | 99° |
| 2026-05-04 19:31 | 42.08833 | -82.01657 | 25616 ft | 436 kts | 99° |
| 2026-05-04 19:31 | 42.08322 | -81.97623 | 26061 ft | 438 kts | 99° |
| 2026-05-04 19:31 | 42.07811 | -81.93614 | 26503 ft | 440 kts | 99° |
| 2026-05-04 19:32 | 42.07218 | -81.89548 | 26944 ft | 443 kts | 105° |
| 2026-05-04 19:32 | 42.06200 | -81.85620 | 27355 ft | 444 kts | 115° |
| 2026-05-04 19:32 | 42.04734 | -81.81932 | 27780 ft | 445 kts | 124° |
| 2026-05-04 19:32 | 42.02905 | -81.78629 | 28190 ft | 445 kts | 134° |
| 2026-05-04 19:33 | 42.00705 | -81.75676 | 28592 ft | 444 kts | 142° |
| 2026-05-04 19:33 | 41.98217 | -81.73219 | 28993 ft | 443 kts | 152° |
| 2026-05-04 19:33 | 41.95530 | -81.71201 | 29527 ft | 440 kts | 155° |
| 2026-05-04 19:33 | 41.92846 | -81.69228 | 30035 ft | 440 kts | 155° |
| 2026-05-04 19:34 | 41.90150 | -81.67236 | 30501 ft | 439 kts | 155° |
| 2026-05-04 19:34 | 41.87510 | -81.65283 | 30956 ft | 439 kts | 154° |
| 2026-05-04 19:34 | 41.84836 | -81.63308 | 31454 ft | 438 kts | 154° |
| 2026-05-04 19:34 | 41.82163 | -81.61344 | 31934 ft | 437 kts | 154° |
| 2026-05-04 19:35 | 41.79483 | -81.59384 | 32381 ft | 437 kts | 155° |
| 2026-05-04 19:35 | 41.76809 | -81.57430 | 32807 ft | 437 kts | 155° |
| 2026-05-04 19:35 | 41.74129 | -81.55467 | 33239 ft | 438 kts | 155° |
| 2026-05-04 19:35 | 41.71460 | -81.53517 | 33644 ft | 438 kts | 155° |
| 2026-05-04 19:36 | 41.68760 | -81.51545 | 33796 ft | 444 kts | 155° |
| 2026-05-04 19:36 | 41.63277 | -81.47559 | 34046 ft | 457 kts | 154° |
| 2026-05-04 19:36 | 41.60578 | -81.45224 | 34162 ft | 467 kts | 144° |
| 2026-05-04 19:37 | 41.58173 | -81.42243 | 34288 ft | 475 kts | 133° |
| 2026-05-04 19:37 | 41.56190 | -81.38735 | 34419 ft | 482 kts | 122° |
| 2026-05-04 19:37 | 41.54654 | -81.34672 | 34664 ft | 485 kts | 110° |
| 2026-05-04 19:37 | 41.53678 | -81.30359 | 34966 ft | 485 kts | 100° |
| 2026-05-04 19:38 | 41.53213 | -81.25957 | 35280 ft | 485 kts | 95° |
| 2026-05-04 19:38 | 41.52814 | -81.21412 | 35621 ft | 485 kts | 95° |
| 2026-05-04 19:38 | 41.52410 | -81.16996 | 35953 ft | 485 kts | 96° |
| 2026-05-04 19:38 | 41.51988 | -81.12510 | 36284 ft | 486 kts | 96° |
| 2026-05-04 19:39 | 41.51561 | -81.08041 | 36592 ft | 486 kts | 96° |
| 2026-05-04 19:39 | 41.51129 | -81.03557 | 36902 ft | 487 kts | 96° |
| 2026-05-04 19:39 | 41.50703 | -80.99076 | 37215 ft | 487 kts | 96° |
| 2026-05-04 19:39 | 41.50283 | -80.94626 | 37518 ft | 487 kts | 96° |
| 2026-05-04 19:40 | 41.49855 | -80.90079 | 37823 ft | 487 kts | 96° |
| 2026-05-04 19:40 | 41.49432 | -80.85581 | 38129 ft | 488 kts | 96° |
| 2026-05-04 19:40 | 41.49009 | -80.81097 | 38409 ft | 488 kts | 96° |
| 2026-05-04 19:40 | 41.48585 | -80.76654 | 38634 ft | 488 kts | 96° |
| 2026-05-04 19:41 | 41.48147 | -80.72096 | 38788 ft | 490 kts | 96° |
| 2026-05-04 19:41 | 41.47277 | -80.63112 | 38813 ft | 489 kts | 96° |
| 2026-05-04 19:42 | 41.46394 | -80.54087 | 38801 ft | 489 kts | 96° |
| 2026-05-04 19:42 | 41.45507 | -80.45117 | 38814 ft | 491 kts | 96° |
| 2026-05-04 19:43 | 41.44612 | -80.36066 | 38814 ft | 491 kts | 96° |
| 2026-05-04 19:43 | 41.43719 | -80.27074 | 38834 ft | 491 kts | 97° |
| 2026-05-04 19:44 | 41.42803 | -80.18037 | 38841 ft | 491 kts | 97° |
| 2026-05-04 19:44 | 41.41882 | -80.08995 | 38852 ft | 492 kts | 96° |
| 2026-05-04 19:45 | 41.40999 | -79.99934 | 38854 ft | 492 kts | 96° |
| 2026-05-04 19:45 | 41.40137 | -79.90914 | 38857 ft | 492 kts | 96° |
| 2026-05-04 19:46 | 41.39256 | -79.81849 | 38861 ft | 493 kts | 96° |
| 2026-05-04 19:46 | 41.38361 | -79.72772 | 38864 ft | 492 kts | 96° |
| 2026-05-04 19:47 | 41.37463 | -79.63786 | 38846 ft | 492 kts | 96° |
| 2026-05-04 19:47 | 41.36555 | -79.54740 | 38848 ft | 492 kts | 96° |
| 2026-05-04 19:48 | 41.35638 | -79.45705 | 38844 ft | 492 kts | 96° |
| 2026-05-04 19:48 | 41.34722 | -79.36717 | 38851 ft | 492 kts | 96° |
| 2026-05-04 19:49 | 41.33789 | -79.27680 | 38851 ft | 492 kts | 96° |
| 2026-05-04 19:49 | 41.32861 | -79.18651 | 38856 ft | 492 kts | 96° |
| 2026-05-04 19:50 | 41.31925 | -79.09665 | 38865 ft | 492 kts | 96° |
| 2026-05-04 19:50 | 41.30967 | -79.00622 | 38869 ft | 492 kts | 96° |
| 2026-05-04 19:51 | 41.30014 | -78.91665 | 38869 ft | 492 kts | 96° |
| 2026-05-04 19:51 | 41.29047 | -78.82650 | 38871 ft | 492 kts | 96° |
| 2026-05-04 19:52 | 41.28240 | -78.75153 | 38873 ft | 492 kts | 97° |
| 2026-05-04 19:52 | 41.27261 | -78.66136 | 38867 ft | 492 kts | 96° |
| 2026-05-04 19:53 | 41.26270 | -78.57130 | 38866 ft | 492 kts | 97° |
| 2026-05-04 19:53 | 41.25275 | -78.48135 | 38866 ft | 492 kts | 97° |
| 2026-05-04 19:54 | 41.24284 | -78.39187 | 38868 ft | 492 kts | 97° |
| 2026-05-04 19:54 | 41.23285 | -78.30160 | 38876 ft | 491 kts | 97° |
| 2026-05-04 19:55 | 41.22274 | -78.21153 | 38870 ft | 491 kts | 97° |
| 2026-05-04 19:55 | 41.21253 | -78.12242 | 38869 ft | 491 kts | 97° |
| 2026-05-04 19:56 | 41.20165 | -78.03261 | 38862 ft | 491 kts | 98° |
| 2026-05-04 19:56 | 41.19030 | -77.94313 | 38868 ft | 492 kts | 98° |
| 2026-05-04 19:57 | 41.17892 | -77.85331 | 38867 ft | 492 kts | 98° |
| 2026-05-04 19:57 | 41.16766 | -77.76382 | 38855 ft | 492 kts | 98° |
| 2026-05-04 19:58 | 41.15627 | -77.67401 | 38856 ft | 493 kts | 98° |
| 2026-05-04 19:58 | 41.14488 | -77.58420 | 38859 ft | 493 kts | 98° |
| 2026-05-04 19:59 | 41.13346 | -77.49492 | 38859 ft | 493 kts | 98° |
| 2026-05-04 19:59 | 41.12185 | -77.40514 | 38865 ft | 493 kts | 98° |
| 2026-05-04 20:00 | 41.11012 | -77.31531 | 38865 ft | 494 kts | 98° |
| 2026-05-04 20:00 | 41.09835 | -77.22553 | 38873 ft | 493 kts | 98° |
| 2026-05-04 20:01 | 41.08660 | -77.13634 | 38875 ft | 493 kts | 98° |
| 2026-05-04 20:01 | 41.07462 | -77.04669 | 38874 ft | 492 kts | 98° |
| 2026-05-04 20:02 | 41.06277 | -76.95723 | 38871 ft | 491 kts | 98° |
| 2026-05-04 20:02 | 41.05092 | -76.86862 | 38868 ft | 490 kts | 98° |
| 2026-05-04 20:03 | 41.03889 | -76.77975 | 38863 ft | 488 kts | 98° |
| 2026-05-04 20:03 | 41.02694 | -76.69174 | 38864 ft | 488 kts | 98° |
| 2026-05-04 20:04 | 41.00905 | -76.60482 | 38871 ft | 490 kts | 107° |
| 2026-05-04 20:04 | 40.98816 | -76.51878 | 38871 ft | 489 kts | 107° |
| 2026-05-04 20:05 | 40.96756 | -76.43326 | 38886 ft | 489 kts | 106° |
| 2026-05-04 20:05 | 40.94712 | -76.34841 | 38904 ft | 473 kts | 107° |
| 2026-05-04 20:05 | 40.93719 | -76.30752 | 38910 ft | 461 kts | 107° |
| 2026-05-04 20:06 | 40.92748 | -76.26753 | 38913 ft | 450 kts | 107° |
| 2026-05-04 20:06 | 40.90858 | -76.18961 | 38917 ft | 441 kts | 106° |
| 2026-05-04 20:07 | 40.88987 | -76.11278 | 38921 ft | 440 kts | 107° |
| 2026-05-04 20:07 | 40.87099 | -76.03591 | 38920 ft | 439 kts | 107° |
| 2026-05-04 20:08 | 40.85211 | -75.95905 | 38920 ft | 439 kts | 107° |
| 2026-05-04 20:08 | 40.83330 | -75.88282 | 38913 ft | 439 kts | 107° |
| 2026-05-04 20:09 | 40.81430 | -75.80605 | 38912 ft | 439 kts | 107° |
| 2026-05-04 20:09 | 40.79523 | -75.72928 | 38926 ft | 439 kts | 107° |
| 2026-05-04 20:10 | 40.77618 | -75.65260 | 38914 ft | 440 kts | 107° |
| 2026-05-04 20:10 | 40.75681 | -75.57486 | 38903 ft | 457 kts | 107° |
| 2026-05-04 20:11 | 40.73639 | -75.49351 | 38902 ft | 475 kts | 107° |
| 2026-05-04 20:11 | 40.72590 | -75.45178 | 38216 ft | 485 kts | 106° |
| 2026-05-04 20:11 | 40.71598 | -75.40866 | 37157 ft | 494 kts | 104° |
| 2026-05-04 20:11 | 40.70708 | -75.36507 | 36348 ft | 498 kts | 102° |
| 2026-05-04 20:12 | 40.69868 | -75.32059 | 35643 ft | 499 kts | 101° |
| 2026-05-04 20:12 | 40.69056 | -75.27633 | 34972 ft | 499 kts | 101° |
| 2026-05-04 20:12 | 40.68225 | -75.23184 | 34302 ft | 498 kts | 101° |
| 2026-05-04 20:12 | 40.67187 | -75.18809 | 33600 ft | 501 kts | 110° |
| 2026-05-04 20:13 | 40.65652 | -75.14678 | 32757 ft | 504 kts | 119° |
| 2026-05-04 20:13 | 40.63661 | -75.10865 | 31851 ft | 507 kts | 129° |
| 2026-05-04 20:13 | 40.61310 | -75.07412 | 30913 ft | 509 kts | 134° |
| 2026-05-04 20:13 | 40.58953 | -75.03964 | 29960 ft | 512 kts | 128° |
| 2026-05-04 20:14 | 40.57197 | -75.00677 | 29011 ft | 513 kts | 121° |
| 2026-05-04 20:14 | 40.55340 | -74.95869 | 27713 ft | 514 kts | 111° |
| 2026-05-04 20:14 | 40.54036 | -74.91469 | 26655 ft | 514 kts | 110° |
| 2026-05-04 20:14 | 40.52735 | -74.87097 | 25707 ft | 511 kts | 110° |
| 2026-05-04 20:15 | 40.51451 | -74.82816 | 24874 ft | 507 kts | 110° |
| 2026-05-04 20:15 | 40.50139 | -74.78463 | 24064 ft | 502 kts | 110° |
| 2026-05-04 20:15 | 40.48874 | -74.74277 | 23250 ft | 497 kts | 111° |
| 2026-05-04 20:15 | 40.47599 | -74.70067 | 22338 ft | 492 kts | 111° |
| 2026-05-04 20:16 | 40.46343 | -74.65914 | 21503 ft | 486 kts | 111° |
| 2026-05-04 20:16 | 40.45108 | -74.61801 | 20699 ft | 480 kts | 110° |
| 2026-05-04 20:16 | 40.44220 | -74.57649 | 19933 ft | 473 kts | 99° |
| 2026-05-04 20:16 | 40.43953 | -74.53381 | 19156 ft | 465 kts | 87° |
| 2026-05-04 20:17 | 40.44295 | -74.49194 | 18377 ft | 458 kts | 76° |
| 2026-05-04 20:17 | 40.45186 | -74.45229 | 17530 ft | 451 kts | 68° |
| 2026-05-04 20:17 | 40.46241 | -74.41353 | 16687 ft | 447 kts | 68° |
| 2026-05-04 20:17 | 40.47273 | -74.37531 | 15927 ft | 442 kts | 68° |
| 2026-05-04 20:18 | 40.48291 | -74.33730 | 15193 ft | 437 kts | 69° |
| 2026-05-04 20:18 | 40.49296 | -74.29961 | 14551 ft | 433 kts | 69° |
| 2026-05-04 20:18 | 40.50268 | -74.26308 | 13898 ft | 429 kts | 69° |
| 2026-05-04 20:18 | 40.51252 | -74.22613 | 13184 ft | 424 kts | 69° |
| 2026-05-04 20:19 | 40.52225 | -74.18959 | 12461 ft | 419 kts | 69° |
| 2026-05-04 20:19 | 40.53183 | -74.15356 | 11753 ft | 414 kts | 69° |
| 2026-05-04 20:19 | 40.54128 | -74.11801 | 11288 ft | 403 kts | 69° |
| 2026-05-04 20:19 | 40.55243 | -74.08531 | 11159 ft | 381 kts | 57° |
| 2026-05-04 20:20 | 40.56763 | -74.05844 | 11050 ft | 361 kts | 44° |
| 2026-05-04 20:20 | 40.58593 | -74.03722 | 10931 ft | 342 kts | 32° |
| 2026-05-04 20:20 | 40.60550 | -74.02050 | 10800 ft | 328 kts | 29° |
| 2026-05-04 20:20 | 40.62428 | -74.00458 | 10676 ft | 317 kts | 29° |
| 2026-05-04 20:21 | 40.64248 | -73.98914 | 10474 ft | 310 kts | 28° |
| 2026-05-04 20:21 | 40.66062 | -73.97403 | 10176 ft | 307 kts | 28° |
| 2026-05-04 20:21 | 40.69675 | -73.94431 | 9491 ft | 304 kts | 28° |
| 2026-05-04 20:22 | 40.71468 | -73.92958 | 9121 ft | 302 kts | 28° |
| 2026-05-04 20:22 | 40.73229 | -73.91507 | 8745 ft | 301 kts | 28° |
| 2026-05-04 20:22 | 40.74997 | -73.90046 | 8374 ft | 300 kts | 28° |
| 2026-05-04 20:22 | 40.76758 | -73.88589 | 8019 ft | 299 kts | 28° |
| 2026-05-04 20:23 | 40.78578 | -73.87080 | 7659 ft | 298 kts | 28° |
| 2026-05-04 20:23 | 40.79684 | -73.86163 | 7428 ft | 297 kts | 28° |
| 2026-05-04 20:23 | 40.82018 | -73.84226 | 6987 ft | 296 kts | 29° |
| 2026-05-04 20:23 | 40.83772 | -73.82769 | 6460 ft | 299 kts | 29° |
| 2026-05-04 20:24 | 40.85548 | -73.81296 | 5656 ft | 303 kts | 29° |
| 2026-05-04 20:24 | 40.87342 | -73.79806 | 4854 ft | 305 kts | 30° |
| 2026-05-04 20:24 | 40.89096 | -73.78342 | 4544 ft | 286 kts | 30° |
| 2026-05-04 20:24 | 40.90687 | -73.77007 | 4412 ft | 265 kts | 30° |
| 2026-05-04 20:25 | 40.92224 | -73.75722 | 3910 ft | 260 kts | 30° |
| 2026-05-04 20:25 | 40.93728 | -73.74438 | 3538 ft | 253 kts | 36° |
| 2026-05-04 20:25 | 40.94708 | -73.72644 | 3394 ft | 232 kts | 76° |
| 2026-05-04 20:25 | 40.94638 | -73.70705 | 3203 ft | 197 kts | 117° |
| 2026-05-04 20:26 | 40.93905 | -73.69406 | 3098 ft | 166 kts | 150° |
| 2026-05-04 20:26 | 40.92927 | -73.68803 | 3026 ft | 149 kts | 176° |
| 2026-05-04 20:26 | 40.91955 | -73.68811 | 3028 ft | 134 kts | 198° |
| 2026-05-04 20:26 | 40.91128 | -73.69280 | 3023 ft | 128 kts | 218° |
| 2026-05-04 20:27 | 40.90491 | -73.70127 | 3017 ft | 131 kts | 237° |
| 2026-05-04 20:27 | 40.90095 | -73.71217 | 3019 ft | 132 kts | 246° |
| 2026-05-04 20:27 | 40.89727 | -73.72332 | 3018 ft | 132 kts | 246° |
| 2026-05-04 20:27 | 40.89484 | -73.73064 | 3014 ft | 132 kts | 246° |
| 2026-05-04 20:28 | 40.88995 | -73.74539 | 3013 ft | 132 kts | 246° |
| 2026-05-04 20:28 | 40.88623 | -73.75659 | 3009 ft | 133 kts | 247° |
| 2026-05-04 20:28 | 40.88252 | -73.76778 | 3011 ft | 133 kts | 247° |
| 2026-05-04 20:28 | 40.87882 | -73.77895 | 3018 ft | 133 kts | 246° |
| 2026-05-04 20:29 | 40.87509 | -73.79021 | 2892 ft | 136 kts | 245° |
| 2026-05-04 20:29 | 40.87060 | -73.80111 | 2418 ft | 135 kts | 230° |
| 2026-05-04 20:29 | 40.86247 | -73.80643 | 2287 ft | 131 kts | 204° |
| 2026-05-04 20:29 | 40.85503 | -73.81267 | 2303 ft | 128 kts | 220° |
| 2026-05-04 20:30 | 40.84730 | -73.81936 | 2048 ft | 132 kts | 218° |
| 2026-05-04 20:30 | 40.83967 | -73.82585 | 1765 ft | 131 kts | 213° |
| 2026-05-04 20:30 | 40.83169 | -73.83175 | 1385 ft | 130 kts | 214° |
| 2026-05-04 20:30 | 40.82421 | -73.83823 | 1301 ft | 129 kts | 215° |
| 2026-05-04 20:31 | 40.81676 | -73.84490 | 1011 ft | 131 kts | 212° |
| 2026-05-04 20:31 | 40.80910 | -73.85116 | 653 ft | 131 kts | 213° |
| 2026-05-04 20:31 | 40.80114 | -73.85731 | 365 ft | 134 kts | 213° |
| 2026-05-04 20:31 | 40.79610 | -73.86147 | 288 ft | 129 kts | 218° |
| 2026-05-04 20:32 | 40.78856 | -73.86800 | 114 ft | 127 kts | 214° |
| 2026-05-04 20:32 | 40.78110 | -73.87420 | 9 ft | 119 kts | 213° |
| 2026-05-04 20:32 | 40.77636 | -73.87810 | 21 ft | 37 kts | 211° |
| 2026-05-04 20:32 | 40.77566 | -73.87869 | 23 ft | 11 kts | 214° |
| 2026-05-04 20:33 | 40.77480 | -73.87946 | 23 ft | 21 kts | 214° |
| 2026-05-04 20:33 | 40.77327 | -73.87995 | 19 ft | 22 kts | 182° |
| 2026-05-04 20:33 | 40.77309 | -73.87991 | 19 ft | 0 kts | 155° |
| 2026-05-04 20:36 | 40.77308 | -73.87992 | 19 ft | 1 kts | 170° |
| 2026-05-04 20:36 | 40.77302 | -73.88010 | 19 ft | 6 kts | 247° |
| 2026-05-04 20:36 | 40.77288 | -73.88105 | 20 ft | 13 kts | 262° |
| 2026-05-04 20:37 | 40.77282 | -73.88186 | 19 ft | 0 kts | 264° |
| 2026-05-04 20:39 | 40.77282 | -73.88187 | 19 ft | 0 kts | 263° |
| 2026-05-04 20:39 | 40.77281 | -73.88194 | 19 ft | 3 kts | 261° |
| 2026-05-04 20:40 | 40.77276 | -73.88232 | 19 ft | 2 kts | 261° |
| 2026-05-04 20:40 | 40.77273 | -73.88275 | 18 ft | 7 kts | 273° |
| 2026-05-04 20:40 | 40.77285 | -73.88350 | 17 ft | 9 kts | 282° |
| 2026-05-04 20:40 | 40.77313 | -73.88388 | 16 ft | 6 kts | 302° |
| 2026-05-04 20:41 | 40.77327 | -73.88396 | 18 ft | 0 kts | 6° |